Terminal Aerodrome Forecast
Issued by NWS

Home | Current Version | Previous Version | Text Only | Print | Product List | Glossary On
Versions: 1 2 3 4 5 6 7 8 9 10 11 12 13
000
FTUS44 KMAF 042326
TAFINK
TAF
KINK 042326Z 0500/0524 13011KT P6SM SCT250
     FM050100 13008KT P6SM SCT250
     FM051500 13010G18KT P6SM FEW100 SCT250=

USA.gov is the U.S. government's official web portal to all federal, state and local government web resources and services.